createdAt,value
2018-08-17T00:01:31.995Z,8.50
2018-08-17T00:04:00.564Z,7.40
2018-08-17T00:06:29.147Z,16.60
2018-08-17T00:08:57.839Z,12.53
2018-08-17T00:11:26.448Z,12.33
2018-08-17T00:13:55.055Z,11.03
2018-08-17T00:16:24.036Z,15.17
2018-08-17T00:18:52.592Z,6.77
2018-08-17T00:21:21.171Z,11.07
2018-08-17T00:23:49.794Z,10.53
2018-08-17T00:26:18.384Z,13.80
2018-08-17T00:28:46.944Z,7.00
2018-08-17T00:31:16.140Z,10.03
2018-08-17T00:33:45.186Z,6.53
2018-08-17T00:36:13.767Z,8.57
2018-08-17T00:38:42.474Z,7.00
2018-08-17T00:41:11.056Z,7.00
2018-08-17T00:43:39.620Z,7.37
2018-08-17T00:46:09.223Z,13.77
2018-08-17T00:48:37.780Z,6.83
2018-08-17T00:51:07.081Z,6.80
2018-08-17T00:53:35.687Z,7.40
2018-08-17T00:56:04.361Z,7.10
2018-08-17T00:58:33.001Z,8.90
2018-08-17T01:01:01.719Z,7.67
2018-08-17T01:03:30.726Z,7.80
2018-08-17T01:05:59.320Z,7.50
2018-08-17T01:08:28.055Z,11.73
2018-08-17T01:10:56.660Z,7.60
2018-08-17T01:13:25.255Z,7.67
2018-08-17T01:15:53.887Z,15.20
2018-08-17T01:18:22.460Z,8.07
2018-08-17T01:20:51.070Z,11.27
2018-08-17T01:23:19.801Z,15.50
2018-08-17T01:25:48.379Z,13.33
2018-08-17T01:28:17.082Z,6.50
2018-08-17T01:30:45.679Z,12.70
2018-08-17T01:33:14.250Z,5.83
2018-08-17T01:35:42.807Z,10.23
2018-08-17T01:38:11.420Z,8.87
2018-08-17T01:40:39.987Z,7.57
2018-08-17T01:43:08.592Z,10.57
2018-08-17T01:45:37.231Z,9.00
2018-08-17T01:48:05.919Z,6.93
2018-08-17T01:50:34.566Z,9.00
2018-08-17T01:53:03.247Z,9.90
2018-08-17T01:55:32.148Z,11.50
2018-08-17T01:58:00.700Z,9.63
2018-08-17T02:00:29.668Z,11.10
2018-08-17T02:02:58.243Z,8.47
2018-08-17T02:05:26.856Z,8.83
2018-08-17T02:07:55.472Z,9.27
2018-08-17T02:10:24.096Z,7.10
2018-08-17T02:12:52.699Z,8.37
2018-08-17T02:15:21.352Z,8.97
2018-08-17T02:17:49.963Z,10.23
2018-08-17T02:20:18.555Z,11.40
2018-08-17T02:22:47.155Z,12.13
2018-08-17T02:25:15.719Z,7.20
2018-08-17T02:27:44.299Z,16.00
2018-08-17T02:30:13.208Z,11.23
2018-08-17T02:32:41.789Z,13.97
2018-08-17T02:35:10.392Z,9.87
2018-08-17T02:37:38.982Z,6.43
2018-08-17T02:40:07.560Z,10.80
2018-08-17T02:42:36.119Z,12.63
2018-08-17T02:45:06.044Z,6.40
2018-08-17T02:47:34.627Z,6.97
2018-08-17T02:50:03.226Z,16.60
2018-08-17T02:52:31.986Z,10.30
2018-08-17T02:55:00.549Z,11.80
2018-08-17T02:57:29.123Z,9.33
2018-08-17T02:59:57.826Z,10.57
2018-08-17T03:02:26.492Z,7.20
2018-08-17T03:04:55.061Z,8.80
2018-08-17T03:07:23.745Z,8.20
2018-08-17T03:09:52.318Z,10.23
2018-08-17T03:12:20.888Z,9.67
2018-08-17T03:14:49.598Z,10.47
2018-08-17T03:17:18.174Z,8.37
2018-08-17T03:19:46.724Z,11.70
2018-08-17T03:22:15.339Z,8.50
2018-08-17T03:24:43.924Z,6.90
2018-08-17T03:27:12.484Z,9.10
2018-08-17T03:29:41.083Z,7.60
2018-08-17T03:32:09.631Z,9.37
2018-08-17T03:34:38.195Z,18.07
2018-08-17T03:37:07.159Z,7.10
2018-08-17T03:39:35.845Z,6.30
2018-08-17T03:42:04.544Z,7.97
2018-08-17T03:44:33.176Z,8.07
2018-08-17T03:47:01.776Z,8.00
2018-08-17T03:49:30.310Z,7.40
2018-08-17T03:51:59.291Z,6.53
2018-08-17T03:54:27.878Z,5.50
2018-08-17T03:56:56.455Z,7.17
2018-08-17T03:59:25.176Z,7.83
2018-08-17T04:01:53.731Z,8.67
2018-08-17T04:04:22.303Z,6.90
2018-08-17T04:06:50.867Z,11.83
2018-08-17T04:09:19.429Z,6.60
2018-08-17T04:11:48.014Z,7.97
2018-08-17T04:14:16.918Z,5.60
2018-08-17T04:16:45.511Z,6.13
2018-08-17T04:19:14.056Z,10.90
2018-08-17T04:21:42.656Z,6.60
2018-08-17T04:24:11.329Z,10.20
2018-08-17T04:26:39.859Z,10.30
2018-08-17T04:29:08.464Z,9.97
2018-08-17T04:31:37.028Z,11.20
2018-08-17T04:34:05.631Z,8.90
2018-08-17T04:36:34.243Z,6.97
2018-08-17T04:39:02.973Z,10.20
2018-08-17T04:41:31.556Z,11.43
2018-08-17T04:44:00.143Z,7.90
2018-08-17T04:46:28.708Z,9.20
2018-08-17T04:48:57.280Z,12.73
2018-08-17T04:51:25.888Z,10.13
2018-08-17T04:53:54.456Z,10.20
2018-08-17T04:56:23.046Z,11.40
2018-08-17T04:58:51.639Z,7.47
2018-08-17T05:01:20.208Z,7.13
2018-08-17T05:03:48.760Z,6.27
2018-08-17T05:06:17.396Z,8.47
2018-08-17T05:08:45.951Z,8.73
2018-08-17T05:11:14.511Z,6.20
2018-08-17T05:13:43.108Z,14.57
2018-08-17T05:16:11.695Z,6.63
2018-08-17T05:18:40.239Z,7.63
2018-08-17T05:21:08.919Z,7.03
2018-08-17T05:23:37.516Z,12.90
2018-08-17T05:26:06.228Z,13.13
2018-08-17T05:28:34.840Z,13.40
2018-08-17T05:31:03.429Z,12.93
2018-08-17T05:33:32.025Z,6.60
2018-08-17T05:36:00.924Z,8.70
2018-08-17T05:38:29.575Z,6.83
2018-08-17T05:40:58.188Z,7.97
2018-08-17T05:43:26.789Z,10.33
2018-08-17T05:45:55.359Z,6.70
2018-08-17T05:48:23.940Z,9.00
2018-08-17T05:50:52.643Z,9.67
2018-08-17T05:53:21.196Z,9.73
2018-08-17T05:55:49.809Z,5.47
2018-08-17T05:58:18.455Z,7.03
2018-08-17T06:00:47.107Z,6.40
2018-08-17T06:03:15.709Z,5.93
2018-08-17T06:05:44.304Z,5.63
2018-08-17T06:08:12.892Z,5.30
2018-08-17T06:10:41.464Z,5.63
2018-08-17T06:13:10.096Z,5.90
2018-08-17T06:15:38.715Z,7.47
2018-08-17T06:18:07.337Z,10.97
2018-08-17T06:20:35.927Z,5.90
2018-08-17T06:23:04.548Z,9.00
2018-08-17T06:25:33.131Z,5.17
2018-08-17T06:28:02.082Z,15.77
2018-08-17T06:30:30.665Z,4.97
2018-08-17T06:32:59.250Z,4.40
2018-08-17T06:35:27.981Z,7.67
2018-08-17T06:37:56.620Z,7.10
2018-08-17T06:40:25.196Z,10.47
2018-08-17T06:42:53.915Z,6.63
2018-08-17T06:45:22.499Z,11.87
2018-08-17T06:47:51.123Z,10.00
2018-08-17T06:50:19.758Z,6.23
2018-08-17T06:52:48.339Z,23.60
2018-08-17T06:55:16.908Z,5.43
2018-08-17T06:57:45.511Z,8.40
2018-08-17T07:00:16.024Z,9.40
2018-08-17T07:02:45.844Z,5.47
2018-08-17T07:05:14.759Z,12.83
2018-08-17T07:07:43.688Z,7.10
2018-08-17T07:10:13.671Z,12.50
2018-08-17T07:12:42.850Z,6.53
2018-08-17T07:15:11.583Z,5.40
2018-08-17T07:17:41.061Z,6.93
2018-08-17T07:20:11.557Z,7.20
2018-08-17T07:22:40.367Z,9.93
2018-08-17T07:25:09.578Z,7.80
2018-08-17T07:27:38.567Z,9.10
2018-08-17T07:30:08.659Z,11.77
2018-08-17T07:32:37.227Z,10.50
2018-08-17T07:35:07.459Z,8.17
2018-08-17T07:37:36.407Z,6.27
2018-08-17T07:40:05.052Z,10.27
2018-08-17T07:42:33.634Z,10.50
2018-08-17T07:45:02.299Z,6.00
2018-08-17T07:47:30.898Z,4.20
2018-08-17T07:49:59.476Z,8.10
2018-08-17T07:52:28.405Z,9.70
2018-08-17T07:54:56.976Z,4.33
2018-08-17T07:57:25.589Z,13.67
2018-08-17T07:59:54.272Z,26.40
2018-08-17T08:02:22.836Z,29.37
2018-08-17T08:04:51.429Z,15.83
2018-08-17T08:07:20.062Z,14.90
2018-08-17T08:09:48.636Z,33.63
2018-08-17T08:12:17.211Z,28.90
2018-08-17T08:14:45.812Z,10.30
2018-08-17T08:17:14.400Z,14.50
2018-08-17T08:19:42.964Z,14.00
2018-08-17T08:22:11.630Z,24.47
2018-08-17T08:24:40.309Z,12.93
2018-08-17T08:27:09.160Z,5.60
2018-08-17T08:29:37.767Z,14.47
2018-08-17T08:32:06.386Z,4.80
2018-08-17T08:34:34.952Z,3.90
2018-08-17T08:37:03.556Z,6.20
2018-08-17T08:39:32.132Z,4.10
2018-08-17T08:42:00.752Z,5.17
2018-08-17T08:44:29.428Z,9.43
2018-08-17T08:46:58.012Z,5.50
2018-08-17T08:49:26.596Z,6.23
2018-08-17T08:51:55.215Z,7.77
2018-08-17T08:54:23.801Z,14.83
2018-08-17T08:56:52.360Z,9.17
2018-08-17T08:59:21.311Z,7.00
2018-08-17T09:01:49.960Z,7.60
2018-08-17T09:04:18.592Z,8.40
2018-08-17T09:06:47.200Z,8.73
2018-08-17T09:09:15.757Z,8.87
2018-08-17T09:11:44.342Z,6.00
2018-08-17T09:14:13.034Z,18.77
2018-08-17T09:16:41.618Z,6.40
2018-08-17T09:19:10.183Z,5.30
2018-08-17T09:21:38.874Z,6.67
2018-08-17T09:24:07.517Z,5.63
2018-08-17T09:26:36.083Z,4.60
2018-08-17T09:29:05.232Z,6.47
2018-08-17T09:31:33.859Z,4.00
2018-08-17T09:34:02.412Z,13.63
2018-08-17T09:36:31.303Z,6.90
2018-08-17T09:38:59.872Z,6.67
2018-08-17T09:41:28.440Z,12.00
2018-08-17T09:43:57.367Z,14.13
2018-08-17T09:46:25.952Z,12.60
2018-08-17T09:48:54.783Z,12.43
2018-08-17T09:51:23.544Z,7.70
2018-08-17T09:53:52.063Z,14.77
2018-08-17T09:56:20.630Z,13.87
2018-08-17T09:58:49.479Z,7.40
2018-08-17T10:01:23.292Z,6.20
2018-08-17T10:03:57.543Z,10.33
2018-08-17T10:06:31.407Z,11.53
2018-08-17T10:10:07.484Z,8.07
2018-08-17T10:12:36.096Z,10.33
2018-08-17T10:15:04.831Z,6.53
2018-08-17T10:17:33.432Z,5.27
2018-08-17T10:20:02.016Z,6.77
2018-08-17T10:22:30.613Z,11.27
2018-08-17T10:25:06.283Z,11.80
2018-08-17T10:27:34.844Z,5.07
2018-08-17T10:30:03.419Z,4.73
2018-08-17T10:32:35.488Z,7.93
2018-08-17T10:35:04.997Z,9.87
2018-08-17T10:37:33.580Z,9.00
2018-08-17T10:40:02.473Z,5.13
2018-08-17T10:42:31.051Z,4.70
2018-08-17T10:44:59.612Z,6.40
2018-08-17T10:47:28.259Z,4.90
2018-08-17T10:49:58.955Z,4.97
2018-08-17T10:52:27.544Z,8.77
2018-08-17T10:54:56.152Z,8.77
2018-08-17T10:57:24.807Z,4.57
2018-08-17T10:59:53.427Z,4.60
2018-08-17T11:02:22.015Z,5.43
2018-08-17T11:04:50.635Z,7.43
2018-08-17T11:07:23.948Z,6.27
2018-08-17T11:09:52.864Z,4.90
2018-08-17T11:12:21.472Z,7.90
2018-08-17T11:14:50.324Z,11.67
2018-08-17T11:17:18.908Z,4.97
2018-08-17T11:19:47.491Z,8.83
2018-08-17T11:22:17.204Z,4.93
2018-08-17T11:24:45.828Z,24.40
2018-08-17T11:27:14.435Z,6.13
2018-08-17T11:29:43.060Z,6.93
2018-08-17T11:32:11.825Z,7.10
2018-08-17T11:34:40.535Z,7.00
2018-08-17T11:37:09.181Z,4.83
2018-08-17T11:39:41.550Z,8.27
2018-08-17T11:42:10.180Z,6.50
2018-08-17T11:44:38.741Z,9.00
2018-08-17T11:47:07.387Z,6.27
2018-08-17T11:49:36.144Z,8.13
2018-08-17T11:52:04.741Z,7.27
2018-08-17T11:54:33.319Z,9.30
2018-08-17T11:57:01.945Z,5.13
2018-08-17T11:59:30.556Z,6.37
2018-08-17T12:01:59.268Z,6.83
2018-08-17T12:04:27.977Z,7.03
2018-08-17T12:06:56.611Z,6.27
2018-08-17T12:09:25.212Z,19.00
2018-08-17T12:11:54.908Z,6.43
2018-08-17T12:14:23.600Z,20.63
2018-08-17T12:16:52.207Z,6.40
2018-08-17T12:19:20.824Z,4.77
2018-08-17T12:21:49.399Z,6.43
2018-08-17T12:24:18.088Z,7.83
2018-08-17T12:26:52.750Z,9.70
2018-08-17T12:29:21.328Z,6.10
2018-08-17T12:31:50.352Z,6.87
2018-08-17T12:34:19.293Z,5.90
2018-08-17T12:36:47.853Z,6.50
2018-08-17T12:39:16.436Z,6.93
2018-08-17T12:41:45.025Z,5.40
2018-08-17T12:44:13.628Z,5.97
2018-08-17T12:46:42.168Z,5.33
2018-08-17T12:49:10.759Z,6.33
2018-08-17T12:51:39.357Z,5.73
2018-08-17T12:54:10.312Z,5.27
2018-08-17T12:56:38.909Z,7.60
2018-08-17T12:59:07.499Z,6.17
2018-08-17T13:01:36.140Z,9.43
2018-08-17T13:04:04.715Z,9.93
2018-08-17T13:06:33.332Z,8.80
2018-08-17T13:09:02.044Z,12.43
2018-08-17T13:11:30.659Z,8.43
2018-08-17T13:14:03.405Z,11.63
2018-08-17T13:16:31.997Z,10.73
2018-08-17T13:19:00.571Z,6.10
2018-08-17T13:21:29.204Z,9.43
2018-08-17T13:23:57.773Z,8.83
2018-08-17T13:26:26.373Z,4.67
2018-08-17T13:28:55.076Z,13.13
2018-08-17T13:31:23.780Z,4.73
2018-08-17T13:33:52.386Z,4.50
2018-08-17T13:36:21.071Z,6.40
2018-08-17T13:38:49.678Z,7.57
2018-08-17T13:41:18.289Z,7.23
2018-08-17T13:43:47.187Z,8.67
2018-08-17T13:46:16.153Z,8.47
2018-08-17T13:48:45.108Z,6.30
2018-08-17T13:51:13.828Z,4.57
2018-08-17T13:53:42.402Z,6.13
2018-08-17T13:56:10.995Z,5.43
2018-08-17T13:58:39.916Z,7.03
2018-08-17T14:01:08.548Z,5.03
2018-08-17T14:03:37.136Z,9.10
2018-08-17T14:06:06.392Z,8.77
2018-08-17T14:08:34.956Z,5.10
2018-08-17T14:11:03.515Z,8.13
2018-08-17T14:13:32.145Z,7.50
2018-08-17T14:16:00.700Z,5.37
2018-08-17T14:18:29.283Z,8.00
2018-08-17T14:20:57.880Z,5.33
2018-08-17T14:23:26.439Z,6.40
2018-08-17T14:25:55.032Z,7.03
2018-08-17T14:28:23.707Z,4.93
2018-08-17T14:30:52.276Z,5.17
2018-08-17T14:33:20.821Z,8.10
2018-08-17T14:35:49.447Z,5.27
2018-08-17T14:38:28.920Z,6.83
2018-08-17T14:40:57.844Z,5.10
2018-08-17T14:43:27.004Z,4.97
2018-08-17T14:45:55.588Z,5.97
2018-08-17T14:48:24.615Z,5.73
2018-08-17T14:50:53.264Z,5.87
2018-08-17T14:53:21.863Z,6.30
2018-08-17T14:55:50.617Z,6.10
2018-08-17T14:58:19.179Z,7.60
2018-08-17T15:00:47.779Z,7.77
2018-08-17T15:03:16.512Z,7.40
2018-08-17T15:05:45.131Z,5.90
2018-08-17T15:08:13.780Z,6.47
2018-08-17T15:10:42.709Z,6.70
2018-08-17T15:13:11.358Z,7.40
2018-08-17T15:15:39.907Z,10.10
2018-08-17T15:18:08.536Z,10.70
2018-08-17T15:20:37.132Z,7.20
2018-08-17T15:23:05.818Z,6.83
2018-08-17T15:25:34.440Z,8.57
2018-08-17T15:28:03.024Z,9.30
2018-08-17T15:30:31.633Z,7.63
2018-08-17T15:33:00.251Z,8.60
2018-08-17T15:35:28.847Z,3.77
2018-08-17T15:37:57.452Z,11.37
2018-08-17T15:40:26.132Z,5.43
2018-08-17T15:43:03.722Z,8.23
2018-08-17T15:45:32.548Z,7.00
2018-08-17T15:48:01.116Z,4.43
2018-08-17T15:50:29.679Z,4.23
2018-08-17T15:52:58.496Z,7.90
2018-08-17T15:55:27.092Z,14.73
2018-08-17T15:57:55.693Z,5.13
2018-08-17T16:00:24.405Z,6.07
2018-08-17T16:02:52.996Z,7.63
2018-08-17T16:05:21.608Z,11.40
2018-08-17T16:07:50.340Z,6.90
2018-08-17T16:10:19.001Z,5.23
2018-08-17T16:12:47.571Z,10.13
2018-08-17T16:15:16.195Z,6.70
2018-08-17T16:17:44.763Z,7.23
2018-08-17T16:20:13.973Z,9.07
2018-08-17T16:22:43.443Z,5.10
2018-08-17T16:25:12.978Z,5.60
2018-08-17T16:27:42.538Z,8.83
2018-08-17T16:30:13.296Z,8.57
2018-08-17T16:32:41.954Z,7.30
2018-08-17T16:35:10.684Z,8.13
2018-08-17T16:37:44.081Z,5.60
2018-08-17T16:40:12.665Z,7.67
2018-08-17T16:42:41.248Z,9.63
2018-08-17T16:45:10.429Z,7.20
2018-08-17T16:47:39.020Z,13.47
2018-08-17T16:50:09.472Z,9.03
2018-08-17T16:52:38.194Z,15.20
2018-08-17T16:55:06.784Z,8.60
2018-08-17T16:57:35.589Z,5.40
2018-08-17T17:00:04.985Z,8.47
2018-08-17T17:02:33.544Z,5.83
2018-08-17T17:05:02.263Z,17.40
2018-08-17T17:07:32.005Z,12.43
2018-08-17T17:10:01.123Z,9.53
2018-08-17T17:12:29.771Z,6.90
2018-08-17T17:15:35.728Z,6.03
2018-08-17T17:18:08.328Z,6.83
2018-08-17T17:20:38.322Z,7.23
2018-08-17T17:23:09.339Z,8.90
2018-08-17T17:25:37.995Z,17.97
2018-08-17T17:28:07.327Z,15.00
2018-08-17T17:30:47.386Z,11.50
2018-08-17T17:33:16.002Z,15.77
2018-08-17T17:35:45.020Z,13.67
2018-08-17T17:38:13.887Z,12.40
2018-08-17T17:40:42.911Z,12.50
2018-08-17T17:43:11.601Z,9.43
2018-08-17T17:45:41.028Z,13.77
2018-08-17T17:48:10.195Z,11.83
2018-08-17T17:50:38.864Z,14.57
2018-08-17T17:53:07.691Z,18.67
2018-08-17T17:55:49.162Z,14.90
2018-08-17T17:58:18.159Z,18.63
2018-08-17T18:00:59.020Z,15.33
2018-08-17T18:03:29.924Z,18.70
2018-08-17T18:06:07.564Z,24.47
2018-08-17T18:08:36.355Z,15.83
2018-08-17T18:11:04.943Z,16.83
2018-08-17T18:13:33.509Z,26.53
2018-08-17T18:16:02.448Z,15.97
2018-08-17T18:18:31.204Z,17.00
2018-08-17T18:20:59.831Z,13.47
2018-08-17T18:23:28.583Z,15.77
2018-08-17T18:25:57.255Z,14.60
2018-08-17T18:28:25.824Z,14.87
2018-08-17T18:30:54.448Z,15.07
2018-08-17T18:33:23.059Z,16.70
2018-08-17T18:35:51.620Z,13.40
2018-08-17T18:38:20.315Z,14.63
2018-08-17T18:40:48.908Z,11.57
2018-08-17T18:43:17.471Z,10.00
2018-08-17T18:45:46.372Z,12.00
2018-08-17T18:48:14.932Z,9.73
2018-08-17T18:50:43.503Z,12.10
2018-08-17T18:53:12.208Z,12.60
2018-08-17T18:55:40.783Z,13.63
2018-08-17T18:58:09.340Z,11.07
2018-08-17T19:00:37.985Z,11.23
2018-08-17T19:03:06.633Z,14.77
2018-08-17T19:05:35.204Z,11.97
2018-08-17T19:08:03.808Z,9.43
2018-08-17T19:10:32.454Z,10.07
2018-08-17T19:13:00.943Z,8.37
2018-08-17T19:15:30.993Z,8.03
2018-08-17T19:17:59.614Z,11.43
2018-08-17T19:20:28.212Z,11.87
2018-08-17T19:22:56.843Z,8.40
2018-08-17T19:25:25.421Z,8.93
2018-08-17T19:27:53.983Z,9.47
2018-08-17T19:30:27.892Z,14.80
2018-08-17T19:32:57.604Z,16.97
2018-08-17T19:35:26.200Z,9.17
2018-08-17T19:37:54.859Z,10.30
2018-08-17T19:40:23.740Z,8.57
2018-08-17T19:42:52.382Z,7.43
2018-08-17T19:45:21.714Z,12.93
2018-08-17T19:47:50.716Z,8.40
2018-08-17T19:50:19.305Z,13.13
2018-08-17T19:52:48.041Z,14.60
2018-08-17T19:55:16.706Z,8.00
2018-08-17T19:57:45.317Z,11.03
2018-08-17T20:00:14.547Z,9.20
2018-08-17T20:02:43.196Z,10.43
2018-08-17T20:05:11.859Z,10.00
2018-08-17T20:07:40.594Z,8.40
2018-08-17T20:10:11.358Z,11.33
2018-08-17T20:12:40.119Z,20.87
2018-08-17T20:15:09.209Z,12.50
2018-08-17T20:17:38.428Z,9.23
2018-08-17T20:20:11.522Z,14.10
2018-08-17T20:22:40.076Z,9.57
2018-08-17T20:25:13.038Z,9.80
2018-08-17T20:27:41.708Z,10.50
2018-08-17T20:30:15.572Z,10.67
2018-08-17T20:32:44.576Z,9.20
2018-08-17T20:35:13.184Z,11.63
2018-08-17T20:37:46.009Z,18.30
2018-08-17T20:40:14.904Z,16.50
2018-08-17T20:42:43.475Z,9.93
2018-08-17T20:45:12.426Z,10.93
2018-08-17T20:47:42.022Z,10.37
2018-08-17T20:50:13.043Z,15.00
2018-08-17T20:53:01.503Z,12.67
2018-08-17T20:55:30.132Z,18.93
2018-08-17T20:57:59.467Z,11.20
2018-08-17T21:00:29.792Z,17.30
2018-08-17T21:02:58.344Z,14.77
2018-08-17T21:05:26.949Z,12.47
2018-08-17T21:07:55.551Z,13.90
2018-08-17T21:10:24.124Z,14.10
2018-08-17T21:12:52.692Z,12.43
2018-08-17T21:15:21.475Z,14.43
2018-08-17T21:17:50.115Z,13.33
2018-08-17T21:20:18.728Z,12.60
2018-08-17T21:22:47.352Z,15.13
2018-08-17T21:25:15.951Z,11.83
2018-08-17T21:27:44.549Z,13.80
2018-08-17T21:30:13.178Z,11.97
2018-08-17T21:32:41.787Z,12.33
2018-08-17T21:35:10.379Z,14.27
2018-08-17T21:37:39.131Z,14.47
2018-08-17T21:40:14.644Z,16.40
2018-08-17T21:42:43.360Z,14.33
2018-08-17T21:45:11.980Z,17.20
2018-08-17T21:47:40.567Z,14.63
2018-08-17T21:50:13.795Z,14.50
2018-08-17T21:52:43.687Z,14.57
2018-08-17T21:55:12.340Z,17.80
2018-08-17T21:57:41.052Z,15.60
2018-08-17T22:00:22.101Z,19.30
2018-08-17T22:02:50.912Z,16.00
2018-08-17T22:05:25.531Z,16.30
2018-08-17T22:07:54.124Z,14.23
2018-08-17T22:10:22.759Z,17.30
2018-08-17T22:12:51.379Z,20.20
2018-08-17T22:15:20.096Z,17.10
2018-08-17T22:17:48.712Z,18.60
2018-08-17T22:20:17.293Z,21.27
2018-08-17T22:22:45.915Z,16.43
2018-08-17T22:25:16.611Z,18.33
2018-08-17T22:27:45.287Z,19.10
2018-08-17T22:30:20.607Z,20.73
2018-08-17T22:32:49.299Z,17.00
2018-08-17T22:35:18.323Z,18.30
2018-08-17T22:37:46.909Z,20.03
2018-08-17T22:40:15.556Z,16.73
2018-08-17T22:42:46.820Z,17.40
2018-08-17T22:45:15.388Z,19.07
2018-08-17T22:47:44.001Z,23.03
2018-08-17T22:50:12.599Z,20.20
2018-08-17T22:52:41.215Z,19.20
2018-08-17T22:55:10.348Z,23.60
2018-08-17T22:57:38.980Z,22.07
2018-08-17T23:00:17.104Z,19.53
2018-08-17T23:02:46.775Z,19.27
2018-08-17T23:05:17.936Z,22.83
2018-08-17T23:07:46.555Z,19.23
2018-08-17T23:10:17.230Z,21.60
2018-08-17T23:12:47.156Z,22.20
2018-08-17T23:15:15.807Z,21.10
2018-08-17T23:17:47.185Z,18.97
2018-08-17T23:20:16.231Z,17.97
2018-08-17T23:22:51.740Z,19.17
2018-08-17T23:25:20.344Z,17.97
2018-08-17T23:27:49.589Z,19.17
2018-08-17T23:30:18.608Z,19.60
2018-08-17T23:32:47.783Z,18.67
2018-08-17T23:35:16.368Z,19.77
2018-08-17T23:37:45.289Z,20.40
2018-08-17T23:40:13.939Z,25.00
2018-08-17T23:42:42.586Z,25.80
2018-08-17T23:45:13.374Z,19.70
2018-08-17T23:47:41.988Z,28.60
2018-08-17T23:50:11.863Z,25.87
2018-08-17T23:52:40.570Z,23.63
2018-08-17T23:55:12.133Z,28.63
2018-08-17T23:57:40.760Z,28.20
